createdAt,value
2023-02-14T00:01:41.588Z,98318.88
2023-02-14T00:04:09.746Z,98315.84
2023-02-14T00:06:38.960Z,98322.13
2023-02-14T00:09:08.608Z,98323.34
2023-02-14T00:11:38.475Z,98324.31
2023-02-14T00:14:24.776Z,98329.53
2023-02-14T00:16:52.928Z,98325.56
2023-02-14T00:19:22.811Z,98329.56
2023-02-14T00:21:51.569Z,98323.25
2023-02-14T00:24:22.571Z,98321.50
2023-02-14T00:26:53.350Z,98312.28
2023-02-14T00:29:24.566Z,98319.97
2023-02-14T00:31:53.349Z,98312.00
2023-02-14T00:34:21.981Z,98318.72
2023-02-14T00:36:50.358Z,98315.81
2023-02-14T00:39:20.229Z,98314.28
2023-02-14T00:41:48.564Z,98302.47
2023-02-14T00:44:19.461Z,98303.41
2023-02-14T00:46:47.501Z,98306.47
2023-02-14T00:49:15.613Z,98315.50
2023-02-14T00:51:43.769Z,98316.72
2023-02-14T00:54:11.839Z,98319.78
2023-02-14T00:56:39.922Z,98317.59
2023-02-14T00:59:10.756Z,98317.97
2023-02-14T01:01:40.550Z,98324.09
2023-02-14T01:04:09.216Z,98320.22
2023-02-14T01:06:37.717Z,98320.94
2023-02-14T01:09:06.323Z,98319.97
2023-02-14T01:11:34.583Z,98323.69
2023-02-14T01:14:04.278Z,98320.22
2023-02-14T01:16:32.458Z,98324.41
2023-02-14T01:19:27.467Z,98331.25
2023-02-14T01:21:55.525Z,98325.22
2023-02-14T01:24:25.160Z,98331.94
2023-02-14T01:26:53.205Z,98326.50
2023-02-14T01:29:21.238Z,98321.66
2023-02-14T01:31:49.412Z,98326.16
2023-02-14T01:34:18.669Z,98320.13
2023-02-14T01:36:49.585Z,98326.66
2023-02-14T01:39:18.519Z,98317.28
2023-02-14T01:41:48.940Z,98321.97
2023-02-14T01:45:00.490Z,98317.03
2023-02-14T01:47:31.997Z,98306.59
2023-02-14T01:50:05.787Z,98308.44
2023-02-14T01:52:39.523Z,98307.16
2023-02-14T01:55:15.132Z,98313.53
2023-02-14T01:57:49.456Z,98314.59
2023-02-14T02:00:37.091Z,98308.75
2023-02-14T02:03:13.381Z,98315.16
2023-02-14T02:05:48.077Z,98309.91
2023-02-14T02:08:20.000Z,98310.13
2023-02-14T02:10:48.348Z,98312.75
2023-02-14T02:13:23.699Z,98313.88
2023-02-14T02:16:09.170Z,98321.31
2023-02-14T02:18:54.704Z,98313.59
2023-02-14T02:22:15.507Z,98319.88
2023-02-14T02:24:56.000Z,98305.88
2023-02-14T02:27:53.530Z,98316.88
2023-02-14T02:31:08.832Z,98310.97
2023-02-14T02:34:17.083Z,98308.97
2023-02-14T02:37:10.937Z,98301.94
2023-02-14T02:39:55.394Z,98295.59
2023-02-14T02:42:35.069Z,98300.44
2023-02-14T02:45:13.597Z,98299.47
2023-02-14T02:47:50.305Z,98302.13
2023-02-14T02:50:53.085Z,98292.44
2023-02-14T02:53:28.444Z,98299.84
2023-02-14T02:56:20.318Z,98301.25
2023-02-14T02:58:55.257Z,98305.81
2023-02-14T03:01:27.940Z,98305.81
2023-02-14T03:04:15.836Z,98295.16
2023-02-14T03:06:46.176Z,98298.69
2023-02-14T03:09:57.730Z,98299.22
2023-02-14T03:13:20.131Z,98303.03
2023-02-14T03:16:14.263Z,98298.66
2023-02-14T03:19:27.559Z,98304.31
2023-02-14T03:22:02.734Z,98308.56
2023-02-14T03:24:45.905Z,98297.81
2023-02-14T03:27:21.064Z,98305.75
2023-02-14T03:30:01.946Z,98297.50
2023-02-14T03:32:37.503Z,98304.94
2023-02-14T03:35:16.137Z,98302.72
2023-02-14T03:37:50.680Z,98302.13
2023-02-14T03:40:26.973Z,98309.13
2023-02-14T03:42:59.749Z,98302.41
2023-02-14T03:45:34.139Z,98300.59
2023-02-14T03:48:07.778Z,98305.25
2023-02-14T03:50:37.882Z,98302.34
2023-02-14T03:53:08.959Z,98305.63
2023-02-14T03:55:46.659Z,98310.97
2023-02-14T03:58:22.291Z,98307.78
2023-02-14T04:00:54.053Z,98299.19
2023-02-14T04:03:26.078Z,98305.09
2023-02-14T04:05:54.588Z,98300.97
2023-02-14T04:08:24.592Z,98297.84
2023-02-14T04:10:55.129Z,98291.56
2023-02-14T04:13:23.309Z,98301.53
2023-02-14T04:15:51.374Z,98303.31
2023-02-14T04:18:37.170Z,98300.66
2023-02-14T04:21:08.712Z,98299.84
2023-02-14T04:23:36.726Z,98306.16
2023-02-14T04:26:06.350Z,98299.88
2023-02-14T04:28:34.852Z,98301.06
2023-02-14T04:31:04.560Z,98295.41
2023-02-14T04:33:32.935Z,98297.91
2023-02-14T04:36:01.921Z,98292.09
2023-02-14T04:38:30.103Z,98285.22
2023-02-14T04:40:58.500Z,98287.16
2023-02-14T04:43:27.975Z,98295.16
2023-02-14T04:45:58.653Z,98281.84
2023-02-14T04:48:28.418Z,98283.97
2023-02-14T04:50:57.731Z,98281.78
2023-02-14T04:53:25.792Z,98283.31
2023-02-14T04:55:53.819Z,98279.06
2023-02-14T04:58:21.825Z,98279.78
2023-02-14T05:00:51.294Z,98282.38
2023-02-14T05:03:19.338Z,98289.38
2023-02-14T05:05:48.580Z,98290.75
2023-02-14T05:08:16.622Z,98288.72
2023-02-14T05:10:45.189Z,98280.59
2023-02-14T05:13:13.653Z,98278.22
2023-02-14T05:15:41.718Z,98269.63
2023-02-14T05:18:11.078Z,98273.53
2023-02-14T05:20:39.091Z,98271.50
2023-02-14T05:23:13.400Z,98275.75
2023-02-14T05:25:42.629Z,98284.25
2023-02-14T05:28:11.121Z,98285.44
2023-02-14T05:30:39.663Z,98287.34
2023-02-14T05:33:08.073Z,98289.56
2023-02-14T05:35:37.722Z,98291.72
2023-02-14T05:38:05.736Z,98289.06
2023-02-14T05:40:33.907Z,98294.03
2023-02-14T05:43:01.972Z,98291.94
2023-02-14T05:45:30.121Z,98290.19
2023-02-14T05:47:58.152Z,98295.97
2023-02-14T05:50:26.266Z,98297.59
2023-02-14T05:52:56.888Z,98293.56
2023-02-14T05:55:26.192Z,98300.53
2023-02-14T05:57:54.272Z,98304.56
2023-02-14T06:00:24.748Z,98302.56
2023-02-14T06:02:52.876Z,98298.91
2023-02-14T06:05:21.034Z,98302.59
2023-02-14T06:07:51.182Z,98297.03
2023-02-14T06:10:23.797Z,98295.72
2023-02-14T06:12:53.666Z,98294.88
2023-02-14T06:15:22.124Z,98297.81
2023-02-14T06:17:53.963Z,98303.16
2023-02-14T06:20:24.209Z,98292.63
2023-02-14T06:22:53.217Z,98300.94
2023-02-14T06:25:23.669Z,98300.09
2023-02-14T06:27:52.270Z,98302.78
2023-02-14T06:30:20.378Z,98307.28
2023-02-14T06:32:48.420Z,98314.06
2023-02-14T06:35:16.821Z,98324.06
2023-02-14T06:37:45.337Z,98322.19
2023-02-14T06:40:15.266Z,98317.22
2023-02-14T06:42:44.629Z,98320.34
2023-02-14T06:45:12.978Z,98318.69
2023-02-14T06:47:41.114Z,98322.34
2023-02-14T06:50:11.623Z,98328.72
2023-02-14T06:52:42.142Z,98316.78
2023-02-14T06:55:12.138Z,98320.91
2023-02-14T06:57:40.320Z,98317.94
2023-02-14T07:00:11.588Z,98308.97
2023-02-14T07:02:39.718Z,98312.13
2023-02-14T07:05:08.010Z,98314.63
2023-02-14T07:07:36.028Z,98316.41
2023-02-14T07:10:04.505Z,98320.16
2023-02-14T07:12:32.489Z,98312.88
2023-02-14T07:15:00.449Z,98306.34
2023-02-14T07:17:29.844Z,98308.91
2023-02-14T07:19:57.810Z,98302.75
2023-02-14T07:22:25.926Z,98305.25
2023-02-14T07:24:53.967Z,98302.75
2023-02-14T07:27:22.095Z,98308.53
2023-02-14T07:29:50.156Z,98306.78
2023-02-14T07:32:18.509Z,98301.78
2023-02-14T07:34:48.244Z,98301.03
2023-02-14T07:37:16.718Z,98306.47
2023-02-14T07:39:44.978Z,98298.41
2023-02-14T07:42:13.431Z,98307.34
2023-02-14T07:44:42.054Z,98302.06
2023-02-14T07:47:11.241Z,98304.94
2023-02-14T07:49:39.323Z,98302.31
2023-02-14T07:52:08.763Z,98304.63
2023-02-14T07:54:38.614Z,98299.84
2023-02-14T07:57:07.170Z,98309.47
2023-02-14T07:59:35.527Z,98302.47
2023-02-14T08:02:03.772Z,98310.22
2023-02-14T08:04:33.818Z,98306.97
2023-02-14T08:07:01.953Z,98309.50
2023-02-14T08:09:31.610Z,98306.50
2023-02-14T08:12:18.270Z,98300.38
2023-02-14T08:14:46.995Z,98291.47
2023-02-14T08:17:15.482Z,98287.25
2023-02-14T08:19:43.483Z,98285.19
2023-02-14T08:22:11.526Z,98292.88
2023-02-14T08:24:40.863Z,98284.91
2023-02-14T08:27:08.882Z,98286.56
2023-02-14T08:29:38.838Z,98278.19
2023-02-14T08:32:07.238Z,98283.09
2023-02-14T08:34:35.250Z,98278.28
2023-02-14T08:37:03.336Z,98278.41
2023-02-14T08:39:32.951Z,98271.59
2023-02-14T08:42:02.336Z,98275.88
2023-02-14T08:44:30.353Z,98279.78
2023-02-14T08:46:58.672Z,98283.75
2023-02-14T08:49:27.018Z,98275.97
2023-02-14T08:51:55.260Z,98279.94
2023-02-14T08:54:23.335Z,98275.41
2023-02-14T08:56:51.626Z,98280.59
2023-02-14T08:59:21.063Z,98280.41
2023-02-14T09:01:53.467Z,98281.69
2023-02-14T09:04:24.146Z,98286.25
2023-02-14T09:06:52.280Z,98280.13
2023-02-14T09:09:20.597Z,98274.81
2023-02-14T09:11:48.662Z,98273.53
2023-02-14T09:14:17.262Z,98277.22
2023-02-14T09:16:46.723Z,98265.38
2023-02-14T09:19:14.910Z,98272.03
2023-02-14T09:21:42.990Z,98274.41
2023-02-14T09:24:11.473Z,98269.66
2023-02-14T09:26:42.081Z,98270.41
2023-02-14T09:29:13.653Z,98263.94
2023-02-14T09:31:41.754Z,98269.22
2023-02-14T09:34:11.231Z,98265.16
2023-02-14T09:36:39.279Z,98260.81
2023-02-14T09:39:07.543Z,98263.66
2023-02-14T09:42:10.175Z,98265.50
2023-02-14T09:44:42.663Z,98257.50
2023-02-14T09:47:23.032Z,98258.88
2023-02-14T09:49:54.123Z,98255.75
2023-02-14T09:52:27.796Z,98251.34
2023-02-14T09:54:59.249Z,98247.59
2023-02-14T09:57:39.981Z,98246.47
2023-02-14T10:00:21.543Z,98254.22
2023-02-14T10:03:09.810Z,98243.91
2023-02-14T10:05:49.486Z,98236.34
2023-02-14T10:08:33.756Z,98239.47
2023-02-14T10:11:08.501Z,98234.88
2023-02-14T10:13:42.176Z,98236.00
2023-02-14T10:16:27.125Z,98224.81
2023-02-14T10:19:01.406Z,98229.41
2023-02-14T10:21:41.970Z,98234.53
2023-02-14T10:24:17.481Z,98229.91
2023-02-14T10:26:49.277Z,98221.69
2023-02-14T10:29:20.688Z,98223.47
2023-02-14T10:31:57.878Z,98224.59
2023-02-14T10:34:36.960Z,98220.28
2023-02-14T10:37:25.557Z,98215.16
2023-02-14T10:40:17.573Z,98220.09
2023-02-14T10:42:55.098Z,98208.06
2023-02-14T10:45:33.270Z,98208.66
2023-02-14T10:48:16.552Z,98208.59
2023-02-14T10:50:53.761Z,98201.44
2023-02-14T10:53:29.338Z,98203.78
2023-02-14T10:56:04.636Z,98197.91
2023-02-14T10:58:37.526Z,98205.19
2023-02-14T11:01:12.061Z,98202.28
2023-02-14T11:03:53.779Z,98201.66
2023-02-14T11:06:22.290Z,98197.19
2023-02-14T11:08:51.756Z,98193.78
2023-02-14T11:11:30.252Z,98190.63
2023-02-14T11:13:58.438Z,98195.41
2023-02-14T11:16:35.018Z,98186.69
2023-02-14T11:19:21.059Z,98178.16
2023-02-14T11:21:51.497Z,98174.97
2023-02-14T11:24:31.573Z,98181.72
2023-02-14T11:27:03.269Z,98171.53
2023-02-14T11:29:34.835Z,98163.31
2023-02-14T11:32:10.198Z,98167.88
2023-02-14T11:34:41.818Z,98170.66
2023-02-14T11:37:27.781Z,98167.41
2023-02-14T11:40:01.471Z,98165.28
2023-02-14T11:42:43.437Z,98157.53
2023-02-14T11:45:35.050Z,98155.56
2023-02-14T11:48:34.890Z,98151.28
2023-02-14T11:51:09.134Z,98147.19
2023-02-14T11:53:45.977Z,98143.38
2023-02-14T11:56:16.602Z,98150.31
2023-02-14T11:58:55.347Z,98147.88
2023-02-14T12:01:27.626Z,98148.00
2023-02-14T12:04:00.716Z,98146.53
2023-02-14T12:06:32.343Z,98150.31
2023-02-14T12:09:13.709Z,98143.41
2023-02-14T12:11:54.866Z,98147.72
2023-02-14T12:14:25.599Z,98142.63
2023-02-14T12:17:01.523Z,98150.19
2023-02-14T12:19:38.191Z,98135.53
2023-02-14T12:22:07.780Z,98133.75
2023-02-14T12:24:42.397Z,98130.63
2023-02-14T12:27:22.445Z,98128.00
2023-02-14T12:29:54.770Z,98127.81
2023-02-14T12:32:25.984Z,98128.94
2023-02-14T12:35:01.778Z,98127.97
2023-02-14T12:37:48.778Z,98123.31
2023-02-14T12:40:28.833Z,98116.13
2023-02-14T12:43:47.826Z,98115.47
2023-02-14T12:46:35.083Z,98115.13
2023-02-14T12:49:32.546Z,98110.53
2023-02-14T12:52:14.158Z,98108.38
2023-02-14T12:54:59.674Z,98106.91
2023-02-14T12:57:41.440Z,98103.44
2023-02-14T13:00:29.745Z,98099.84
2023-02-14T13:03:48.852Z,98093.56
2023-02-14T13:06:25.468Z,98095.69
2023-02-14T13:09:13.718Z,98084.47
2023-02-14T13:11:58.598Z,98084.81
2023-02-14T13:14:57.714Z,98088.75
2023-02-14T13:17:36.935Z,98075.59
2023-02-14T13:20:25.844Z,98082.16
2023-02-14T13:22:56.789Z,98085.13
2023-02-14T13:25:31.754Z,98076.19
2023-02-14T13:28:02.387Z,98080.81
2023-02-14T13:30:33.735Z,98071.09
2023-02-14T13:33:09.259Z,98074.19
2023-02-14T13:35:38.513Z,98065.25
2023-02-14T13:38:13.404Z,98067.03
2023-02-14T13:40:42.175Z,98055.50
2023-02-14T13:43:10.212Z,98059.22
2023-02-14T13:45:55.797Z,98057.97
2023-02-14T13:48:28.523Z,98052.16
2023-02-14T13:50:59.991Z,98046.31
2023-02-14T13:53:39.427Z,98050.66
2023-02-14T13:56:35.772Z,98052.13
2023-02-14T13:59:06.949Z,98047.31
2023-02-14T14:01:40.447Z,98048.16
2023-02-14T14:04:38.349Z,98053.16
2023-02-14T14:07:27.053Z,98051.31
2023-02-14T14:10:04.290Z,98045.16
2023-02-14T14:12:40.773Z,98039.47
2023-02-14T14:15:22.121Z,98042.84
2023-02-14T14:18:38.371Z,98045.59
2023-02-14T14:21:23.838Z,98050.69
2023-02-14T14:24:13.432Z,98047.31
2023-02-14T14:26:44.833Z,98039.53
2023-02-14T14:29:20.268Z,98040.13
2023-02-14T14:31:55.281Z,98040.22
2023-02-14T14:34:26.027Z,98036.91
2023-02-14T14:37:05.499Z,98042.84
2023-02-14T14:39:39.748Z,98044.16
2023-02-14T14:42:10.675Z,98043.69
2023-02-14T14:44:46.150Z,98043.44
2023-02-14T14:47:20.775Z,98038.81
2023-02-14T14:49:49.570Z,98036.19
2023-02-14T14:52:35.372Z,98036.47
2023-02-14T14:55:05.758Z,98029.97
2023-02-14T14:57:36.120Z,98036.88
2023-02-14T15:00:20.412Z,98034.81
2023-02-14T15:03:05.609Z,98032.00
2023-02-14T15:05:36.705Z,98030.19
2023-02-14T15:08:33.609Z,98028.88
2023-02-14T15:11:07.450Z,98028.25
2023-02-14T15:13:50.465Z,98032.28
2023-02-14T15:16:22.052Z,98025.53
2023-02-14T15:18:52.128Z,98024.38
2023-02-14T15:21:20.430Z,98027.78
2023-02-14T15:23:50.349Z,98024.19
2023-02-14T15:26:24.133Z,98021.69
2023-02-14T15:28:58.058Z,98022.41
2023-02-14T15:31:32.281Z,98019.91
2023-02-14T15:34:02.800Z,98016.91
2023-02-14T15:36:33.195Z,98018.56
2023-02-14T15:39:06.611Z,98016.44
2023-02-14T15:41:34.691Z,98018.06
2023-02-14T15:44:02.698Z,98019.91
2023-02-14T15:46:36.509Z,98019.91
2023-02-14T15:49:11.420Z,98021.44
2023-02-14T15:51:40.710Z,98028.03
2023-02-14T15:54:21.886Z,98032.63
2023-02-14T15:56:53.220Z,98026.28
2023-02-14T15:59:23.752Z,98024.66
2023-02-14T16:01:56.563Z,98025.31
2023-02-14T16:04:26.595Z,98024.63
2023-02-14T16:07:22.399Z,98023.50
2023-02-14T16:10:20.544Z,98027.75
2023-02-14T16:13:01.177Z,98028.13
2023-02-14T16:15:33.287Z,98025.19
2023-02-14T16:18:06.937Z,98027.00
2023-02-14T16:20:45.179Z,98022.56
2023-02-14T16:23:26.869Z,98025.34
2023-02-14T16:25:58.216Z,98024.41
2023-02-14T16:28:30.918Z,98025.53
2023-02-14T16:31:02.802Z,98022.28
2023-02-14T16:33:35.162Z,98024.91
2023-02-14T16:36:09.214Z,98025.53
2023-02-14T16:38:43.808Z,98032.09
2023-02-14T16:41:22.192Z,98034.25
2023-02-14T16:43:51.247Z,98031.97
2023-02-14T16:46:23.120Z,98030.81
2023-02-14T16:48:52.528Z,98031.50
2023-02-14T16:51:23.438Z,98028.88
2023-02-14T16:53:52.229Z,98028.38
2023-02-14T16:56:24.907Z,98029.84
2023-02-14T16:58:52.985Z,98031.53
2023-02-14T17:01:21.048Z,98034.16
2023-02-14T17:03:49.046Z,98038.88
2023-02-14T17:06:27.345Z,98042.03
2023-02-14T17:08:57.492Z,98031.69
2023-02-14T17:11:31.811Z,98039.03
2023-02-14T17:14:00.274Z,98027.56
2023-02-14T17:16:30.560Z,98040.28
2023-02-14T17:18:58.970Z,98040.81
2023-02-14T17:21:26.954Z,98048.78
2023-02-14T17:23:55.554Z,98045.63
2023-02-14T17:26:23.791Z,98045.44
2023-02-14T17:28:53.148Z,98049.00
2023-02-14T17:31:21.459Z,98047.97
2023-02-14T17:33:49.530Z,98051.88
2023-02-14T17:36:17.666Z,98050.09
2023-02-14T17:38:45.652Z,98046.03
2023-02-14T17:41:16.826Z,98049.91
2023-02-14T17:43:44.996Z,98043.03
2023-02-14T17:46:15.865Z,98047.00
2023-02-14T17:48:45.391Z,98054.50
2023-02-14T17:51:16.094Z,98050.19
2023-02-14T17:53:44.848Z,98046.88
2023-02-14T17:56:21.109Z,98054.00
2023-02-14T17:58:51.660Z,98055.53
2023-02-14T18:01:23.735Z,98058.16
2023-02-14T18:03:52.471Z,98047.97
2023-02-14T18:06:21.546Z,98043.59
2023-02-14T18:08:53.604Z,98045.53
2023-02-14T18:11:22.538Z,98039.81
2023-02-14T18:13:51.324Z,98034.84
2023-02-14T18:16:20.813Z,98039.72
2023-02-14T18:18:49.187Z,98037.31
2023-02-14T18:21:20.815Z,98036.63
2023-02-14T18:23:49.182Z,98034.44
2023-02-14T18:26:18.954Z,98033.91
2023-02-14T18:28:47.028Z,98028.13
2023-02-14T18:31:18.001Z,98020.78
2023-02-14T18:33:49.682Z,98027.38
2023-02-14T18:36:21.697Z,98024.53
2023-02-14T18:38:50.667Z,98024.09
2023-02-14T18:41:20.604Z,98022.47
2023-02-14T18:43:49.882Z,98025.69
2023-02-14T18:46:21.356Z,98021.94
2023-02-14T18:48:51.816Z,98025.59
2023-02-14T18:51:22.573Z,98016.63
2023-02-14T18:53:52.742Z,98022.22
2023-02-14T18:56:23.534Z,98023.50
2023-02-14T18:58:56.466Z,98018.25
2023-02-14T19:01:29.493Z,98020.38
2023-02-14T19:04:01.081Z,98019.09
2023-02-14T19:06:31.899Z,98015.50
2023-02-14T19:09:01.489Z,98010.50
2023-02-14T19:11:32.930Z,98009.69
2023-02-14T19:14:05.183Z,98009.97
2023-02-14T19:16:36.676Z,98008.63
2023-02-14T19:19:06.427Z,98007.28
2023-02-14T19:21:36.638Z,98001.88
2023-02-14T19:24:07.829Z,98001.06
2023-02-14T19:26:40.738Z,98002.81
2023-02-14T19:29:12.419Z,97999.66
2023-02-14T19:31:43.960Z,97993.38
2023-02-14T19:34:19.145Z,97998.09
2023-02-14T19:36:48.187Z,97986.56
2023-02-14T19:39:17.177Z,97990.78
2023-02-14T19:41:46.365Z,97984.50
2023-02-14T19:44:16.994Z,97994.06
2023-02-14T19:46:47.715Z,97995.84
2023-02-14T19:49:20.382Z,97993.97
2023-02-14T19:51:51.080Z,97993.59
2023-02-14T19:54:19.636Z,98001.78
2023-02-14T19:56:48.885Z,97989.75
2023-02-14T19:59:21.713Z,97985.63
2023-02-14T20:01:52.182Z,97992.78
2023-02-14T20:04:23.737Z,97973.28
2023-02-14T20:06:53.370Z,97973.19
2023-02-14T20:09:22.761Z,97973.06
2023-02-14T20:11:54.292Z,97979.25
2023-02-14T20:14:24.973Z,97975.28
2023-02-14T20:16:55.367Z,97980.97
2023-02-14T20:19:27.935Z,97976.88
2023-02-14T20:21:56.114Z,97971.66
2023-02-14T20:24:26.905Z,97970.00
2023-02-14T20:26:56.231Z,97967.16
2023-02-14T20:29:26.370Z,97956.19
2023-02-14T20:31:58.038Z,97957.56
2023-02-14T20:34:28.003Z,97956.84
2023-02-14T20:36:56.381Z,97950.13
2023-02-14T20:39:30.420Z,97955.13
2023-02-14T20:41:58.515Z,97954.41
2023-02-14T20:44:27.069Z,97951.38
2023-02-14T20:46:56.829Z,97946.34
2023-02-14T20:49:29.826Z,97949.09
2023-02-14T20:51:58.456Z,97946.75
2023-02-14T20:54:29.085Z,97947.00
2023-02-14T20:56:58.395Z,97939.41
2023-02-14T20:59:28.483Z,97940.38
2023-02-14T21:01:58.557Z,97946.28
2023-02-14T21:04:29.479Z,97943.34
2023-02-14T21:07:00.112Z,97939.66
2023-02-14T21:09:28.307Z,97939.25
2023-02-14T21:11:57.961Z,97936.56
2023-02-14T21:14:26.125Z,97927.59
2023-02-14T21:16:54.152Z,97919.09
2023-02-14T21:19:22.336Z,97924.22
2023-02-14T21:21:51.813Z,97924.63
2023-02-14T21:24:19.898Z,97919.16
2023-02-14T21:26:47.904Z,97913.16
2023-02-14T21:29:15.923Z,97919.38
2023-02-14T21:31:44.037Z,97910.13
2023-02-14T21:34:12.296Z,97910.13
2023-02-14T21:36:40.322Z,97905.59
2023-02-14T21:39:09.676Z,97909.31
2023-02-14T21:41:38.356Z,97914.44
2023-02-14T21:44:07.149Z,97906.03
2023-02-14T21:46:38.717Z,97908.00
2023-02-14T21:49:25.406Z,97902.78
2023-02-14T21:51:53.654Z,97901.69
2023-02-14T21:54:22.990Z,97892.66
2023-02-14T21:56:51.123Z,97884.72
2023-02-14T21:59:19.219Z,97887.63
2023-02-14T22:01:47.436Z,97883.66
2023-02-14T22:04:15.566Z,97890.22
2023-02-14T22:06:44.226Z,97883.34
2023-02-14T22:09:17.312Z,97880.75
2023-02-14T22:11:47.478Z,97881.84
2023-02-14T22:14:15.907Z,97877.88
2023-02-14T22:16:43.916Z,97876.94
2023-02-14T22:19:15.778Z,97878.72
2023-02-14T22:21:44.341Z,97874.16
2023-02-14T22:24:12.683Z,97881.59
2023-02-14T22:26:41.560Z,97874.44
2023-02-14T22:29:13.417Z,97881.47
2023-02-14T22:31:43.927Z,97881.34
2023-02-14T22:34:14.971Z,97881.78
2023-02-14T22:36:43.088Z,97880.13
2023-02-14T22:39:14.170Z,97875.75
2023-02-14T22:41:42.203Z,97872.44
2023-02-14T22:44:13.390Z,97870.81
2023-02-14T22:46:41.814Z,97869.00
2023-02-14T22:49:09.936Z,97872.03
2023-02-14T22:51:41.222Z,97866.28
2023-02-14T22:54:13.448Z,97860.91
2023-02-14T22:56:44.371Z,97866.13
2023-02-14T22:59:19.436Z,97869.16
2023-02-14T23:01:48.620Z,97858.59
2023-02-14T23:04:18.540Z,97859.00
2023-02-14T23:06:46.815Z,97850.06
2023-02-14T23:09:16.295Z,97864.47
2023-02-14T23:11:47.015Z,97855.81
2023-02-14T23:14:35.820Z,97851.72
2023-02-14T23:17:22.477Z,97856.66
2023-02-14T23:20:07.958Z,97846.94
2023-02-14T23:22:38.731Z,97845.53
2023-02-14T23:25:09.476Z,97842.81
2023-02-14T23:27:40.731Z,97844.50
2023-02-14T23:30:15.027Z,97847.63
2023-02-14T23:32:43.605Z,97844.75
2023-02-14T23:35:11.875Z,97842.53
2023-02-14T23:37:40.078Z,97842.28
2023-02-14T23:40:10.229Z,97844.22
2023-02-14T23:42:38.448Z,97850.94
2023-02-14T23:45:25.205Z,97843.13
2023-02-14T23:47:54.630Z,97843.25
2023-02-14T23:50:22.681Z,97849.69
2023-02-14T23:52:50.740Z,97849.13
2023-02-14T23:55:18.928Z,97851.06
2023-02-14T23:57:47.020Z,97843.66
